Latest Weather Observations for Bourke

IDN60801

Issued at 9:02 pm EST Sunday 24 May 2015 (issued every 30 minutes, with the page automatically refreshed every 10 minutes)

About weather observations | Map of weather stations | Latest weather observations for NSW | Other Formats
Station Details ID: 048245 Name: BOURKE AIRPORT AWS Lat: -30.04 Lon: 145.95 Height: 107.3 m
Data from the previous 72 hours. | See also: Recent months at Bourke
Date/Time
EST
Temp
°C
App
Temp
°C
Dew
Point
Rel
Hum
%
Delta-T
°C
Wind Press
QNH
hPa
Press
MSL
hPa
Rain
since 9 am
mm
Dir
 
Spd
km/h
Gust
km/h
Spd
kts
Gust
kts
24/08:30pm 13.4 10.9 6.7 64 3.2 ESE 9 11 5 6 1029.3 1029.2 0.0
24/08:00pm 14.2 11.8 7.0 62 3.5 ESE 9 11 5 6 1029.2 1029.1 0.0
24/07:30pm 14.4 11.7 7.2 62 3.5 ESE 11 13 6 7 1028.6 1028.6 0.0
24/07:00pm 14.4 11.9 6.5 59 3.8 ESE 9 11 5 6 1028.8 1028.8 0.0
24/06:30pm 15.9 13.8 6.6 54 4.6 ESE 7 9 4 5 1028.6 1028.6 0.0
24/06:00pm 16.8 14.4 6.9 52 4.9 ESE 9 11 5 6 1028.3 1028.3 0.0
24/05:30pm 18.2 15.7 6.7 47 5.8 E 9 11 5 6 1028.1 1028.1 0.0
24/05:00pm 19.7 16.9 6.8 43 6.5 E 11 20 6 11 1028.2 1028.2 0.0
24/04:30pm 20.8 17.5 6.4 39 7.3 ENE 13 19 7 10 1028.1 1028.1 0.0
24/04:00pm 21.5 17.9 6.6 38 7.6 ENE 15 24 8 13 1027.9 1027.9 0.0
24/03:30pm 20.7 16.5 5.9 38 7.4 ENE 17 24 9 13 1027.8 1027.8 0.0
24/03:00pm 20.8 16.7 6.4 39 7.2 ENE 17 24 9 13 1027.7 1027.7 0.0
24/02:30pm 21.0 17.3 6.5 39 7.4 ENE 15 26 8 14 1027.7 1027.7 0.0
24/02:00pm 21.0 17.1 6.9 40 7.2 ENE 17 24 9 13 1027.9 1027.9 0.0
24/01:30pm 20.0 16.8 6.7 42 6.7 NE 13 20 7 11 1028.1 1028.1 0.0
24/01:00pm 20.2 16.7 7.2 43 6.6 NE 15 24 8 13 1028.5 1028.5 0.0
24/12:30pm 20.4 17.5 8.1 45 6.4 NE 13 22 7 12 1028.7 1028.7 0.0
24/12:00pm 20.1 17.4 9.1 49 5.8 E 13 19 7 10 1029.2 1029.1 0.0
24/11:30am 18.9 15.8 8.8 52 5.3 NE 15 20 8 11 1029.5 1029.4 0.0
24/11:00am 17.7 14.0 8.0 53 4.9 ENE 17 20 9 11 1030.1 1030.0 0.0
24/10:30am 17.2 13.6 8.4 56 4.5 NE 17 20 9 11 1030.3 1030.2 0.0
24/10:00am 15.9 12.3 8.4 61 3.8 ENE 17 22 9 12 1030.2 1030.1 0.0
24/09:30am 14.6 11.3 8.1 65 3.3 E 15 19 8 10 1030.1 1030.0 0.0
24/09:00am 13.2 9.5 7.9 70 2.6 E 17 22 9 12 1029.8 1029.7 0.0
24/08:30am 10.8 8.4 7.1 78 1.8 ESE 9 11 5 6 1029.8 1029.7 0.0
24/08:00am 8.4 7.5 5.9 84 1.1 CALM 0 0 0 0 1029.6 1029.5 0.0
24/07:30am 7.0 4.2 5.3 89 0.8 SE 9 11 5 6 1029.1 1029.0 0.0
24/07:00am 6.7 3.5 5.0 89 0.7 SE 11 13 6 7 1028.8 1028.8 0.0
24/06:30am 6.8 3.3 5.4 91 0.6 SSE 13 15 7 8 1028.5 1028.5 0.0
24/06:00am 6.9 3.8 5.7 92 0.5 SSE 11 15 6 8 1028.4 1028.4 0.0
24/05:30am 6.9 3.9 5.8 93 0.5 SE 11 15 6 8 1028.3 1028.3 0.0
24/05:00am 6.3 3.9 5.1 92 0.5 SSE 7 9 4 5 1028.5 1028.5 0.0
24/04:30am 7.2 5.0 5.5 89 0.8 SSE 6 6 3 3 1028.4 1028.4 0.0
24/04:00am 7.5 4.8 5.6 88 0.8 SE 9 11 5 6 1028.1 1028.1 0.0
24/03:30am 8.4 5.9 6.4 87 0.9 SE 9 13 5 7 1028.0 1028.0 0.0
24/03:00am 8.0 5.2 7.1 94 0.4 SE 11 13 6 7 1028.0 1028.0 0.0
24/02:30am 6.6 4.2 5.1 90 0.7 SE 7 9 4 5 1028.2 1028.2 0.0
24/02:00am 7.3 5.2 5.8 90 0.7 SSW 6 6 3 3 1028.1 1028.1 0.0
24/01:30am 7.8 5.7 5.9 88 0.9 SSE 6 7 3 4 1028.1 1028.1 0.0
24/01:00am 9.0 7.0 7.1 88 0.9 SSE 7 9 4 5 1028.1 1028.1 0.0
24/12:30am 8.6 6.1 6.7 88 0.9 SE 9 11 5 6 1028.0 1028.0 0.0
24/12:00am 8.9 6.7 6.0 82 1.3 SE 7 7 4 4 1028.4 1028.4 0.0
 
Date/Time
EST
Temp
°C
App
Temp
°C
Dew
Point
Rel
Hum
%
Delta-T
°C
Wind Press
QNH
hPa
Press
MSL
hPa
Rain
since 9 am
mm
Dir
 
Spd
km/h
Gust
km/h
Spd
kts
Gust
kts
23/11:30pm 10.4 8.4 7.1 80 1.6 SE 7 7 4 4 1028.2 1028.2 0.0
23/11:00pm 11.4 9.4 7.3 76 2.0 SE 7 11 4 6 1028.3 1028.3 0.0
23/10:30pm 12.0 9.3 7.5 74 2.2 ESE 11 13 6 7 1028.3 1028.3 0.0
23/10:00pm 12.2 9.5 7.5 73 2.3 ESE 11 13 6 7 1028.3 1028.3 0.0
23/09:30pm 13.0 10.4 7.9 71 2.5 ESE 11 13 6 7 1028.5 1028.5 0.0
23/09:00pm 13.8 10.9 8.0 68 2.9 ESE 13 17 7 9 1028.3 1028.3 0.0
23/08:30pm 13.8 10.8 7.6 66 3.1 ESE 13 17 7 9 1027.9 1027.9 0.0
23/08:00pm 14.4 11.0 7.7 64 3.3 ESE 15 19 8 10 1027.5 1027.5 0.0
23/07:30pm 14.5 11.4 7.3 62 3.6 ESE 13 15 7 8 1027.5 1027.5 0.0
23/07:00pm 14.4 11.5 6.7 60 3.7 ESE 11 13 6 7 1027.5 1027.5 0.0
23/06:30pm 14.9 12.4 6.5 57 4.1 ESE 9 11 5 6 1027.2 1027.2 0.0
23/06:00pm 16.7 13.9 6.8 52 4.9 E 11 13 6 7 1027.0 1026.9 0.0
23/05:30pm 18.2 15.2 5.8 44 6.1 SE 11 15 6 8 1026.8 1026.7 0.0
23/05:00pm 19.4 15.5 5.5 40 6.8 ESE 15 20 8 11 1026.3 1026.2 0.0
23/04:30pm 20.0 16.0 4.9 37 7.4 E 15 20 8 11 1026.3 1026.2 0.0
23/04:00pm 20.1 15.2 4.2 35 7.6 ESE 19 26 10 14 1026.2 1026.1 0.0
23/03:30pm 20.1 15.5 3.8 34 7.8 E 17 22 9 12 1026.3 1026.2 0.0
23/03:00pm 20.0 15.2 4.5 36 7.5 E 19 24 10 13 1026.4 1026.3 0.0
23/02:30pm 19.8 14.9 3.9 35 7.6 SE 19 24 10 13 1026.6 1026.5 0.0
23/02:00pm 20.0 15.9 4.1 35 7.6 ESE 15 28 8 15 1026.8 1026.7 0.0
23/01:30pm 20.0 15.6 4.5 36 7.5 E 17 26 9 14 1027.0 1026.9 0.0
23/01:00pm 19.6 15.2 4.5 37 7.3 E 17 26 9 14 1027.4 1027.4 0.0
23/12:30pm 18.9 15.0 5.4 41 6.6 ESE 15 24 8 13 1028.0 1028.0 0.0
23/12:00pm 18.5 14.4 6.0 44 6.1 ESE 17 28 9 15 1028.4 1028.4 0.0
23/11:30am 18.3 13.8 6.2 45 6.0 E 19 28 10 15 1028.8 1028.8 0.0
23/11:00am 17.3 13.5 7.4 52 5.0 SE 17 26 9 14 1029.1 1029.0 0.0
23/10:30am 15.6 12.3 7.9 60 3.9 ESE 15 20 8 11 1029.5 1029.4 0.0
23/10:00am 14.2 11.6 7.7 65 3.2 SE 11 17 6 9 1029.7 1029.6 0.0
23/09:30am 12.4 9.8 7.9 74 2.2 SE 11 15 6 8 1029.5 1029.4 0.0
23/09:00am 10.9 7.9 7.8 81 1.5 SE 13 15 7 8 1029.4 1029.3 0.2
23/08:30am 9.9 7.7 7.7 86 1.1 SSE 9 13 5 7 1029.1 1029.0 0.2
23/08:00am 9.0 6.4 7.6 91 0.7 SSE 11 17 6 9 1028.6 1028.6 0.2
23/07:30am 7.1 4.5 6.2 94 0.4 SSE 9 13 5 7 1028.2 1028.2 0.2
23/07:00am 6.8 3.8 6.1 95 0.3 SSE 11 13 6 7 1027.9 1027.9 0.2
23/06:30am 7.4 4.1 6.5 94 0.4 SSE 13 15 7 8 1027.5 1027.5 0.2
23/06:00am 7.7 4.9 6.8 94 0.4 SSE 11 13 6 7 1027.1 1027.0 0.2
23/05:30am 8.5 5.5 7.7 95 0.4 S 13 15 7 8 1027.0 1026.9 0.2
23/05:00am 7.1 4.6 6.5 96 0.3 S 9 11 5 6 1026.9 1026.8 0.2
23/04:30am 6.8 4.6 6.2 96 0.3 SSW 7 9 4 5 1026.9 1026.8 0.2
23/04:00am 6.4 4.2 5.2 92 0.5 WSW 6 7 3 4 1026.8 1026.7 0.2
23/03:30am 7.0 4.8 6.1 94 0.4 SW 7 9 4 5 1026.5 1026.4 0.2
23/03:00am 7.2 5.1 5.8 91 0.6 SSW 6 7 3 4 1026.3 1026.2 0.2
23/02:30am 8.0 6.9 6.9 93 0.5 SW 2 7 1 4 1026.4 1026.3 0.2
23/02:00am 8.1 6.8 6.1 87 0.9 SW 2 7 1 4 1026.5 1026.4 0.2
23/01:30am 9.2 7.4 7.2 87 0.9 SW 6 6 3 3 1026.5 1026.4 0.2
23/01:00am 10.3 8.6 7.5 83 1.3 SW 6 7 3 4 1026.3 1026.2 0.2
23/12:30am 11.3 9.2 8.2 81 1.5 S 9 11 5 6 1026.1 1026.0 0.2
23/12:00am 12.0 9.5 8.3 78 1.8 S 11 15 6 8 1026.1 1026.0 0.2
 
Date/Time
EST
Temp
°C
App
Temp
°C
Dew
Point
Rel
Hum
%
Delta-T
°C
Wind Press
QNH
hPa
Press
MSL
hPa
Rain
since 9 am
mm
Dir
 
Spd
km/h
Gust
km/h
Spd
kts
Gust
kts
22/11:30pm 12.7 9.5 8.6 76 2.1 S 15 20 8 11 1026.2 1026.1 0.2
22/11:00pm 13.3 9.8 8.8 74 2.3 S 17 20 9 11 1026.5 1026.4 0.2
22/10:30pm 13.8 10.6 8.6 71 2.6 SSW 15 20 8 11 1026.7 1026.6 0.2
22/10:00pm 14.3 10.4 8.7 69 2.8 SSW 19 24 10 13 1026.8 1026.7 0.2
22/09:30pm 14.3 10.4 8.7 69 2.8 SSW 19 24 10 13 1026.9 1026.8 0.2
22/09:00pm 14.8 10.7 8.7 67 3.1 SSW 20 28 11 15 1026.9 1026.8 0.2
22/08:30pm 15.1 10.7 8.8 66 3.2 SSW 22 28 12 15 1026.8 1026.7 0.2
22/08:00pm 15.1 11.0 8.8 66 3.2 SSW 20 30 11 16 1026.4 1026.3 0.2
22/07:30pm 15.4 10.8 8.2 62 3.6 SSW 22 30 12 16 1026.0 1025.9 0.2
22/07:00pm 15.9 12.3 8.2 60 3.9 SSW 17 22 9 12 1025.5 1025.4 0.2
22/06:30pm 16.8 13.9 8.2 57 4.4 SSW 13 19 7 10 1025.4 1025.3 0.2
22/06:00pm 16.5 14.6 9.0 61 3.9 WSW 9 15 5 8 1025.0 1024.9 0.2
22/05:30pm 17.4 15.2 8.0 54 4.8 SW 9 13 5 7 1024.5 1024.4 0.2
22/05:00pm 17.5 14.2 8.1 54 4.8 WSW 15 20 8 11 1024.1 1024.0 0.2
22/04:30pm 18.0 14.3 8.0 52 5.1 SW 17 22 9 12 1023.8 1023.7 0.2
22/04:00pm 18.9 14.8 7.7 48 5.7 WSW 19 26 10 14 1023.6 1023.5 0.2
22/03:30pm 18.7 14.4 6.9 46 6.0 SW 19 28 10 15 1023.5 1023.4 0.2
22/03:00pm 18.8 14.8 6.6 45 6.1 SW 17 28 9 15 1023.1 1023.0 0.2
22/02:30pm 18.8 14.8 8.2 50 5.5 SSW 19 24 10 13 1023.1 1023.0 0.2
22/02:00pm 18.4 14.2 7.5 49 5.5 SW 19 30 10 16 1023.2 1023.1 0.2
22/01:30pm 17.8 13.5 7.2 50 5.3 SSW 19 28 10 15 1023.4 1023.3 0.2
22/01:00pm 17.1 12.9 8.3 56 4.5 SW 20 30 11 16 1023.5 1023.4 0.2
22/12:30pm 17.3 13.5 9.2 59 4.2 SW 19 28 10 15 1023.8 1023.7 0.2
22/12:00pm 16.2 12.6 8.4 60 4.0 SW 17 28 9 15 1024.1 1024.0 0.2
22/11:30am 15.4 11.3 8.6 64 3.5 SW 20 26 11 14 1024.5 1024.4 0.2
22/11:00am 14.5 10.5 8.9 69 2.8 SW 20 28 11 15 1024.7 1024.6 0.0
22/10:30am 13.7 9.6 8.7 72 2.5 SW 20 32 11 17 1024.7 1024.6 0.0
22/10:00am 12.7 8.6 8.6 76 2.0 SW 20 26 11 14 1024.9 1024.8 0.0
22/09:30am 12.2 9.0 8.5 78 1.8 SW 15 20 8 11 1024.8 1024.7 0.0
22/09:00am 11.3 7.7 8.2 81 1.5 WSW 17 26 9 14 1024.7 1024.6 5.4
22/08:30am 10.4 7.5 8.0 85 1.2 WSW 13 20 7 11 1024.3 1024.2 5.4
22/08:00am 10.3 7.0 8.1 86 1.1 WSW 15 20 8 11 1024.0 1023.9 5.4
22/07:30am 10.4 7.2 8.3 87 1.0 WSW 15 22 8 12 1023.6 1023.5 5.4
22/07:00am 10.7 8.3 8.6 87 1.0 WSW 11 17 6 9 1023.2 1023.1 5.4
22/06:30am 10.7 7.9 8.6 87 1.0 WSW 13 19 7 10 1022.8 1022.7 5.4
22/06:00am 10.7 8.3 8.6 87 1.0 WSW 11 13 6 7 1022.3 1022.2 5.4
22/05:30am 11.0 9.1 9.1 88 1.0 WSW 9 13 5 7 1022.1 1022.0 5.4
22/05:00am 10.9 8.2 8.8 87 1.0 WSW 13 17 7 9 1022.0 1021.9 5.4
22/04:30am 10.8 8.1 8.9 88 0.9 WSW 13 20 7 11 1021.7 1021.6 5.4
22/04:00am 10.8 7.7 8.9 88 0.9 WSW 15 20 8 11 1021.6 1021.5 5.4
22/03:30am 11.1 8.4 9.0 87 1.0 WSW 13 19 7 10 1021.5 1021.4 5.4
22/03:00am 10.8 8.0 8.7 87 1.0 WSW 13 20 7 11 1021.6 1021.5 5.4
22/02:30am 11.0 7.9 8.9 87 1.0 SW 15 22 8 12 1021.7 1021.6 5.4
22/02:00am 10.9 7.8 9.0 88 0.9 SW 15 20 8 11 1021.8 1021.7 5.4
22/01:30am 10.4 7.3 8.8 90 0.8 WSW 15 20 8 11 1021.8 1021.7 5.4
22/01:00am 10.3 6.8 8.7 90 0.8 WSW 17 20 9 11 1021.8 1021.7 5.4
22/12:30am 10.2 6.6 8.5 89 0.8 WSW 17 20 9 11 1022.0 1021.9 5.4
22/12:00am 10.2 6.6 8.5 89 0.8 WSW 17 26 9 14 1022.1 1022.0 5.4
 
Date/Time
EST
Temp
°C
App
Temp
°C
Dew
Point
Rel
Hum
%
Delta-T
°C
Wind Press
QNH
hPa
Press
MSL
hPa
Rain
since 9 am
mm
Dir
 
Spd
km/h
Gust
km/h
Spd
kts
Gust
kts
21/11:30pm 10.1 6.9 8.5 90 0.8 WSW 15 22 8 12 1022.2 1022.1 5.4
21/11:00pm 10.2 7.0 8.5 89 0.8 WSW 15 20 8 11 1022.3 1022.2 5.4
21/10:30pm 10.4 7.9 8.0 85 1.2 WSW 11 15 6 8 1022.2 1022.1 5.4
21/10:00pm 10.6 7.6 7.7 82 1.4 SW 13 17 7 9 1022.2 1022.1 5.4
21/09:30pm 11.0 7.7 8.0 82 1.5 SW 15 22 8 12 1022.2 1022.1 5.4

Other Formats:

Comma delimited format used in spreadsheet applications
http://www.bom.gov.au/fwo/IDN60801/IDN60801.94703.axf

JavaScript Object Notation format (JSON) in row-major order
http://www.bom.gov.au/fwo/IDN60801/IDN60801.94703.json